sensor_id;sensor_type;location;lat;lon;timestamp;P1;durP1;ratioP1;P2;durP2;ratioP2
21562;SDS011;10942;47.894;11.424;2022-12-19T00:01:21;35.10;;;15.32;;
21562;SDS011;10942;47.894;11.424;2022-12-19T00:03:54;32.25;;;14.55;;
21562;SDS011;10942;47.894;11.424;2022-12-19T00:06:21;36.92;;;14.90;;
21562;SDS011;10942;47.894;11.424;2022-12-19T00:08:48;36.28;;;15.10;;
21562;SDS011;10942;47.894;11.424;2022-12-19T00:11:17;33.35;;;14.68;;
21562;SDS011;10942;47.894;11.424;2022-12-19T00:13:44;36.42;;;15.75;;
21562;SDS011;10942;47.894;11.424;2022-12-19T00:16:11;33.20;;;14.57;;
21562;SDS011;10942;47.894;11.424;2022-12-19T00:18:40;36.17;;;16.48;;
21562;SDS011;10942;47.894;11.424;2022-12-19T00:21:06;32.13;;;14.68;;
21562;SDS011;10942;47.894;11.424;2022-12-19T00:23:34;35.70;;;14.45;;
21562;SDS011;10942;47.894;11.424;2022-12-19T00:28:36;33.72;;;15.02;;
21562;SDS011;10942;47.894;11.424;2022-12-19T00:31:02;34.17;;;13.93;;
21562;SDS011;10942;47.894;11.424;2022-12-19T00:33:28;29.88;;;13.30;;
21562;SDS011;10942;47.894;11.424;2022-12-19T00:35:58;37.22;;;14.43;;
21562;SDS011;10942;47.894;11.424;2022-12-19T00:38:30;37.25;;;15.20;;
21562;SDS011;10942;47.894;11.424;2022-12-19T00:41:10;42.17;;;16.45;;
21562;SDS011;10942;47.894;11.424;2022-12-19T00:43:37;32.53;;;14.20;;
21562;SDS011;10942;47.894;11.424;2022-12-19T00:46:04;33.35;;;14.30;;
21562;SDS011;10942;47.894;11.424;2022-12-19T00:48:32;39.20;;;16.20;;
21562;SDS011;10942;47.894;11.424;2022-12-19T00:51:11;31.23;;;14.15;;
21562;SDS011;10942;47.894;11.424;2022-12-19T00:53:40;32.22;;;14.68;;
21562;SDS011;10942;47.894;11.424;2022-12-19T00:56:08;34.72;;;15.18;;
21562;SDS011;10942;47.894;11.424;2022-12-19T00:58:37;33.75;;;14.82;;
21562;SDS011;10942;47.894;11.424;2022-12-19T01:01:07;34.50;;;15.07;;
21562;SDS011;10942;47.894;11.424;2022-12-19T01:03:36;35.22;;;14.32;;
21562;SDS011;10942;47.894;11.424;2022-12-19T01:06:01;35.17;;;15.63;;
21562;SDS011;10942;47.894;11.424;2022-12-19T01:08:28;33.67;;;15.82;;
21562;SDS011;10942;47.894;11.424;2022-12-19T01:10:54;33.20;;;14.52;;
21562;SDS011;10942;47.894;11.424;2022-12-19T01:13:21;38.20;;;15.18;;
21562;SDS011;10942;47.894;11.424;2022-12-19T01:15:47;37.28;;;15.05;;
21562;SDS011;10942;47.894;11.424;2022-12-19T01:18:13;31.25;;;14.63;;
21562;SDS011;10942;47.894;11.424;2022-12-19T01:20:40;40.10;;;16.65;;
21562;SDS011;10942;47.894;11.424;2022-12-19T01:23:08;34.70;;;14.27;;
21562;SDS011;10942;47.894;11.424;2022-12-19T01:25:34;32.67;;;14.93;;
21562;SDS011;10942;47.894;11.424;2022-12-19T01:28:01;33.08;;;15.68;;
21562;SDS011;10942;47.894;11.424;2022-12-19T01:30:30;34.67;;;14.50;;
21562;SDS011;10942;47.894;11.424;2022-12-19T01:32:56;36.03;;;14.13;;
21562;SDS011;10942;47.894;11.424;2022-12-19T01:35:25;32.35;;;15.27;;
21562;SDS011;10942;47.894;11.424;2022-12-19T01:37:52;37.55;;;15.43;;
21562;SDS011;10942;47.894;11.424;2022-12-19T01:40:19;30.90;;;14.50;;
21562;SDS011;10942;47.894;11.424;2022-12-19T01:42:46;31.20;;;14.52;;
21562;SDS011;10942;47.894;11.424;2022-12-19T01:47:49;34.15;;;15.02;;
21562;SDS011;10942;47.894;11.424;2022-12-19T01:50:23;33.47;;;13.30;;
21562;SDS011;10942;47.894;11.424;2022-12-19T01:52:56;35.20;;;14.77;;
21562;SDS011;10942;47.894;11.424;2022-12-19T01:55:24;32.88;;;13.77;;
21562;SDS011;10942;47.894;11.424;2022-12-19T01:57:50;32.33;;;14.68;;
21562;SDS011;10942;47.894;11.424;2022-12-19T02:00:17;35.03;;;14.35;;
21562;SDS011;10942;47.894;11.424;2022-12-19T02:02:52;33.90;;;13.98;;
21562;SDS011;10942;47.894;11.424;2022-12-19T02:05:24;30.23;;;13.17;;
21562;SDS011;10942;47.894;11.424;2022-12-19T02:07:51;32.17;;;13.48;;
21562;SDS011;10942;47.894;11.424;2022-12-19T02:10:17;33.58;;;14.30;;
21562;SDS011;10942;47.894;11.424;2022-12-19T02:12:43;33.40;;;13.93;;
21562;SDS011;10942;47.894;11.424;2022-12-19T02:15:11;33.47;;;13.35;;
21562;SDS011;10942;47.894;11.424;2022-12-19T02:18:02;31.48;;;13.38;;
21562;SDS011;10942;47.894;11.424;2022-12-19T02:20:58;30.73;;;13.25;;
21562;SDS011;10942;47.894;11.424;2022-12-19T02:26:45;30.65;;;13.20;;
21562;SDS011;10942;47.894;11.424;2022-12-19T02:29:25;31.95;;;13.45;;
21562;SDS011;10942;47.894;11.424;2022-12-19T02:32:19;33.30;;;13.60;;
21562;SDS011;10942;47.894;11.424;2022-12-19T02:34:49;32.63;;;13.90;;
21562;SDS011;10942;47.894;11.424;2022-12-19T02:37:26;35.03;;;13.55;;
21562;SDS011;10942;47.894;11.424;2022-12-19T02:39:57;29.10;;;12.68;;
21562;SDS011;10942;47.894;11.424;2022-12-19T02:42:31;29.42;;;12.60;;
21562;SDS011;10942;47.894;11.424;2022-12-19T02:45:02;24.40;;;10.60;;
21562;SDS011;10942;47.894;11.424;2022-12-19T02:47:31;33.47;;;13.60;;
21562;SDS011;10942;47.894;11.424;2022-12-19T02:50:00;27.02;;;13.23;;
21562;SDS011;10942;47.894;11.424;2022-12-19T02:54:57;28.85;;;12.50;;
21562;SDS011;10942;47.894;11.424;2022-12-19T02:57:38;30.95;;;13.95;;
21562;SDS011;10942;47.894;11.424;2022-12-19T03:00:16;32.33;;;12.60;;
21562;SDS011;10942;47.894;11.424;2022-12-19T03:02:46;26.65;;;12.93;;
21562;SDS011;10942;47.894;11.424;2022-12-19T03:11:06;30.92;;;14.13;;
21562;SDS011;10942;47.894;11.424;2022-12-19T03:16:12;32.90;;;13.85;;
21562;SDS011;10942;47.894;11.424;2022-12-19T03:18:38;31.10;;;13.55;;
21562;SDS011;10942;47.894;11.424;2022-12-19T03:21:15;28.92;;;13.32;;
21562;SDS011;10942;47.894;11.424;2022-12-19T03:23:56;35.47;;;15.32;;
21562;SDS011;10942;47.894;11.424;2022-12-19T03:26:23;31.42;;;13.93;;
21562;SDS011;10942;47.894;11.424;2022-12-19T03:28:53;31.95;;;14.35;;
21562;SDS011;10942;47.894;11.424;2022-12-19T03:31:22;35.25;;;14.65;;
21562;SDS011;10942;47.894;11.424;2022-12-19T03:33:53;29.15;;;13.95;;
21562;SDS011;10942;47.894;11.424;2022-12-19T03:36:32;31.80;;;14.40;;
21562;SDS011;10942;47.894;11.424;2022-12-19T03:41:38;32.85;;;14.07;;
21562;SDS011;10942;47.894;11.424;2022-12-19T03:44:25;32.47;;;13.57;;
21562;SDS011;10942;47.894;11.424;2022-12-19T03:46:56;35.05;;;14.80;;
21562;SDS011;10942;47.894;11.424;2022-12-19T03:49:28;27.80;;;13.13;;
21562;SDS011;10942;47.894;11.424;2022-12-19T03:52:04;31.65;;;13.52;;
21562;SDS011;10942;47.894;11.424;2022-12-19T03:54:53;30.35;;;13.95;;
21562;SDS011;10942;47.894;11.424;2022-12-19T03:57:42;33.17;;;13.63;;
21562;SDS011;10942;47.894;11.424;2022-12-19T04:00:15;32.65;;;13.27;;
21562;SDS011;10942;47.894;11.424;2022-12-19T04:02:44;29.65;;;13.02;;
21562;SDS011;10942;47.894;11.424;2022-12-19T04:05:14;32.50;;;13.70;;
21562;SDS011;10942;47.894;11.424;2022-12-19T04:10:14;25.50;;;12.30;;
21562;SDS011;10942;47.894;11.424;2022-12-19T04:12:46;28.45;;;13.02;;
21562;SDS011;10942;47.894;11.424;2022-12-19T04:15:19;31.17;;;16.80;;
21562;SDS011;10942;47.894;11.424;2022-12-19T04:17:56;34.97;;;17.05;;
21562;SDS011;10942;47.894;11.424;2022-12-19T04:20:23;35.10;;;16.13;;
21562;SDS011;10942;47.894;11.424;2022-12-19T04:22:51;33.83;;;15.18;;
21562;SDS011;10942;47.894;11.424;2022-12-19T04:25:32;31.85;;;13.77;;
21562;SDS011;10942;47.894;11.424;2022-12-19T04:31:13;35.65;;;15.02;;
21562;SDS011;10942;47.894;11.424;2022-12-19T04:33:40;33.85;;;14.70;;
21562;SDS011;10942;47.894;11.424;2022-12-19T04:36:06;33.33;;;14.25;;
21562;SDS011;10942;47.894;11.424;2022-12-19T04:38:32;31.48;;;14.95;;
21562;SDS011;10942;47.894;11.424;2022-12-19T04:40:58;36.97;;;16.23;;
21562;SDS011;10942;47.894;11.424;2022-12-19T04:43:24;34.47;;;16.17;;
21562;SDS011;10942;47.894;11.424;2022-12-19T04:45:49;40.22;;;17.40;;
21562;SDS011;10942;47.894;11.424;2022-12-19T04:48:15;37.80;;;15.18;;
21562;SDS011;10942;47.894;11.424;2022-12-19T04:50:41;34.28;;;15.55;;
21562;SDS011;10942;47.894;11.424;2022-12-19T04:53:06;35.63;;;14.75;;
21562;SDS011;10942;47.894;11.424;2022-12-19T04:55:32;33.03;;;16.02;;
21562;SDS011;10942;47.894;11.424;2022-12-19T04:57:58;31.13;;;14.80;;
21562;SDS011;10942;47.894;11.424;2022-12-19T05:00:24;41.70;;;17.17;;
21562;SDS011;10942;47.894;11.424;2022-12-19T05:02:49;39.45;;;18.45;;
21562;SDS011;10942;47.894;11.424;2022-12-19T05:05:15;39.00;;;15.05;;
21562;SDS011;10942;47.894;11.424;2022-12-19T05:07:42;39.65;;;16.65;;
21562;SDS011;10942;47.894;11.424;2022-12-19T05:10:08;37.42;;;16.45;;
21562;SDS011;10942;47.894;11.424;2022-12-19T05:12:34;43.28;;;18.02;;
21562;SDS011;10942;47.894;11.424;2022-12-19T05:15:00;40.22;;;17.00;;
21562;SDS011;10942;47.894;11.424;2022-12-19T05:17:25;38.35;;;15.98;;
21562;SDS011;10942;47.894;11.424;2022-12-19T05:19:51;31.10;;;14.75;;
21562;SDS011;10942;47.894;11.424;2022-12-19T05:22:17;39.50;;;15.45;;
21562;SDS011;10942;47.894;11.424;2022-12-19T05:24:42;35.30;;;15.60;;
21562;SDS011;10942;47.894;11.424;2022-12-19T05:27:08;32.42;;;14.63;;
21562;SDS011;10942;47.894;11.424;2022-12-19T05:29:34;37.85;;;16.08;;
21562;SDS011;10942;47.894;11.424;2022-12-19T05:32:00;35.17;;;15.50;;
21562;SDS011;10942;47.894;11.424;2022-12-19T05:34:25;34.72;;;15.52;;
21562;SDS011;10942;47.894;11.424;2022-12-19T05:36:51;36.90;;;15.70;;
21562;SDS011;10942;47.894;11.424;2022-12-19T05:39:17;37.35;;;14.48;;
21562;SDS011;10942;47.894;11.424;2022-12-19T05:41:42;35.85;;;15.10;;
21562;SDS011;10942;47.894;11.424;2022-12-19T05:44:08;36.50;;;15.60;;
21562;SDS011;10942;47.894;11.424;2022-12-19T05:46:34;36.30;;;15.57;;
21562;SDS011;10942;47.894;11.424;2022-12-19T05:49:00;38.03;;;15.82;;
21562;SDS011;10942;47.894;11.424;2022-12-19T05:51:53;33.92;;;14.98;;
21562;SDS011;10942;47.894;11.424;2022-12-19T05:54:19;35.15;;;15.40;;
21562;SDS011;10942;47.894;11.424;2022-12-19T05:56:45;36.10;;;14.52;;
21562;SDS011;10942;47.894;11.424;2022-12-19T05:59:10;34.97;;;15.38;;
21562;SDS011;10942;47.894;11.424;2022-12-19T06:01:36;40.28;;;17.70;;
21562;SDS011;10942;47.894;11.424;2022-12-19T06:04:02;43.42;;;17.13;;
21562;SDS011;10942;47.894;11.424;2022-12-19T06:06:28;38.78;;;18.42;;
21562;SDS011;10942;47.894;11.424;2022-12-19T06:08:55;37.15;;;15.75;;
21562;SDS011;10942;47.894;11.424;2022-12-19T06:11:22;46.33;;;20.67;;
21562;SDS011;10942;47.894;11.424;2022-12-19T06:13:48;52.25;;;23.25;;
21562;SDS011;10942;47.894;11.424;2022-12-19T06:16:15;44.22;;;21.10;;
21562;SDS011;10942;47.894;11.424;2022-12-19T06:18:42;38.53;;;18.00;;
21562;SDS011;10942;47.894;11.424;2022-12-19T06:21:09;42.65;;;19.13;;
21562;SDS011;10942;47.894;11.424;2022-12-19T06:23:46;38.67;;;17.20;;
21562;SDS011;10942;47.894;11.424;2022-12-19T06:26:13;86.90;;;39.25;;
21562;SDS011;10942;47.894;11.424;2022-12-19T06:28:40;40.05;;;17.60;;
21562;SDS011;10942;47.894;11.424;2022-12-19T06:31:06;43.47;;;20.40;;
21562;SDS011;10942;47.894;11.424;2022-12-19T06:33:32;46.17;;;21.05;;
21562;SDS011;10942;47.894;11.424;2022-12-19T06:36:02;58.42;;;25.58;;
21562;SDS011;10942;47.894;11.424;2022-12-19T06:40:56;56.13;;;24.13;;
21562;SDS011;10942;47.894;11.424;2022-12-19T06:43:40;42.80;;;20.95;;
21562;SDS011;10942;47.894;11.424;2022-12-19T06:46:06;48.08;;;21.92;;
21562;SDS011;10942;47.894;11.424;2022-12-19T06:48:32;47.17;;;21.05;;
21562;SDS011;10942;47.894;11.424;2022-12-19T06:50:58;54.13;;;23.25;;
21562;SDS011;10942;47.894;11.424;2022-12-19T06:53:24;37.63;;;17.20;;
21562;SDS011;10942;47.894;11.424;2022-12-19T06:55:50;37.58;;;16.65;;
21562;SDS011;10942;47.894;11.424;2022-12-19T06:58:19;42.30;;;20.23;;
21562;SDS011;10942;47.894;11.424;2022-12-19T07:00:45;39.35;;;17.00;;
21562;SDS011;10942;47.894;11.424;2022-12-19T07:03:11;42.28;;;18.77;;
21562;SDS011;10942;47.894;11.424;2022-12-19T07:05:39;44.22;;;19.92;;
21562;SDS011;10942;47.894;11.424;2022-12-19T07:08:06;52.58;;;22.35;;
21562;SDS011;10942;47.894;11.424;2022-12-19T07:10:33;44.85;;;20.60;;
21562;SDS011;10942;47.894;11.424;2022-12-19T07:12:59;37.00;;;18.58;;
21562;SDS011;10942;47.894;11.424;2022-12-19T07:15:24;40.35;;;17.58;;
21562;SDS011;10942;47.894;11.424;2022-12-19T07:17:50;48.17;;;18.70;;
21562;SDS011;10942;47.894;11.424;2022-12-19T07:20:17;48.58;;;19.50;;
21562;SDS011;10942;47.894;11.424;2022-12-19T07:22:45;41.53;;;17.77;;
21562;SDS011;10942;47.894;11.424;2022-12-19T07:25:11;43.72;;;18.35;;
21562;SDS011;10942;47.894;11.424;2022-12-19T07:27:37;48.20;;;21.50;;
21562;SDS011;10942;47.894;11.424;2022-12-19T07:30:03;68.97;;;24.67;;
21562;SDS011;10942;47.894;11.424;2022-12-19T07:32:30;54.88;;;22.15;;
21562;SDS011;10942;47.894;11.424;2022-12-19T07:34:56;47.47;;;21.15;;
21562;SDS011;10942;47.894;11.424;2022-12-19T07:37:21;53.58;;;22.92;;
21562;SDS011;10942;47.894;11.424;2022-12-19T07:39:47;66.63;;;30.15;;
21562;SDS011;10942;47.894;11.424;2022-12-19T07:42:13;59.40;;;28.63;;
21562;SDS011;10942;47.894;11.424;2022-12-19T07:44:39;49.63;;;23.50;;
21562;SDS011;10942;47.894;11.424;2022-12-19T07:47:07;38.63;;;19.20;;
21562;SDS011;10942;47.894;11.424;2022-12-19T07:49:34;50.65;;;23.70;;
21562;SDS011;10942;47.894;11.424;2022-12-19T07:51:59;39.22;;;19.73;;
21562;SDS011;10942;47.894;11.424;2022-12-19T07:54:25;46.15;;;21.63;;
21562;SDS011;10942;47.894;11.424;2022-12-19T07:56:51;58.40;;;25.67;;
21562;SDS011;10942;47.894;11.424;2022-12-19T07:59:17;55.28;;;25.40;;
21562;SDS011;10942;47.894;11.424;2022-12-19T08:01:42;55.40;;;25.92;;
21562;SDS011;10942;47.894;11.424;2022-12-19T08:04:08;74.32;;;30.27;;
21562;SDS011;10942;47.894;11.424;2022-12-19T08:06:34;69.70;;;30.38;;
21562;SDS011;10942;47.894;11.424;2022-12-19T08:08:59;58.47;;;26.23;;
21562;SDS011;10942;47.894;11.424;2022-12-19T08:11:25;57.10;;;28.20;;
21562;SDS011;10942;47.894;11.424;2022-12-19T08:13:55;59.80;;;25.77;;
21562;SDS011;10942;47.894;11.424;2022-12-19T08:16:21;60.67;;;25.35;;
21562;SDS011;10942;47.894;11.424;2022-12-19T08:18:48;53.22;;;25.10;;
21562;SDS011;10942;47.894;11.424;2022-12-19T08:21:14;43.40;;;21.15;;
21562;SDS011;10942;47.894;11.424;2022-12-19T08:23:40;40.83;;;20.38;;
21562;SDS011;10942;47.894;11.424;2022-12-19T08:26:07;46.63;;;21.08;;
21562;SDS011;10942;47.894;11.424;2022-12-19T08:28:35;38.63;;;18.30;;
21562;SDS011;10942;47.894;11.424;2022-12-19T08:31:08;44.58;;;20.45;;
21562;SDS011;10942;47.894;11.424;2022-12-19T08:33:39;46.95;;;21.85;;
21562;SDS011;10942;47.894;11.424;2022-12-19T08:36:09;39.63;;;19.98;;
21562;SDS011;10942;47.894;11.424;2022-12-19T08:38:36;53.63;;;26.42;;
21562;SDS011;10942;47.894;11.424;2022-12-19T08:41:03;43.25;;;22.52;;
21562;SDS011;10942;47.894;11.424;2022-12-19T08:43:30;41.47;;;19.83;;
21562;SDS011;10942;47.894;11.424;2022-12-19T08:45:56;47.45;;;23.67;;
21562;SDS011;10942;47.894;11.424;2022-12-19T08:48:22;39.03;;;20.00;;
21562;SDS011;10942;47.894;11.424;2022-12-19T08:50:51;35.33;;;17.95;;
21562;SDS011;10942;47.894;11.424;2022-12-19T08:53:18;35.55;;;18.80;;
21562;SDS011;10942;47.894;11.424;2022-12-19T08:55:44;35.70;;;19.05;;
21562;SDS011;10942;47.894;11.424;2022-12-19T08:58:10;41.15;;;20.77;;
21562;SDS011;10942;47.894;11.424;2022-12-19T09:00:36;41.00;;;19.30;;
21562;SDS011;10942;47.894;11.424;2022-12-19T09:03:02;34.05;;;18.15;;
21562;SDS011;10942;47.894;11.424;2022-12-19T09:05:28;35.15;;;17.08;;
21562;SDS011;10942;47.894;11.424;2022-12-19T09:07:54;30.60;;;14.90;;
21562;SDS011;10942;47.894;11.424;2022-12-19T09:10:19;33.88;;;15.25;;
21562;SDS011;10942;47.894;11.424;2022-12-19T09:12:45;32.72;;;15.07;;
21562;SDS011;10942;47.894;11.424;2022-12-19T09:15:11;28.88;;;13.93;;
21562;SDS011;10942;47.894;11.424;2022-12-19T09:17:36;31.20;;;14.85;;
21562;SDS011;10942;47.894;11.424;2022-12-19T09:20:02;36.28;;;18.02;;
21562;SDS011;10942;47.894;11.424;2022-12-19T09:22:28;30.08;;;15.00;;
21562;SDS011;10942;47.894;11.424;2022-12-19T09:24:54;31.23;;;16.00;;
21562;SDS011;10942;47.894;11.424;2022-12-19T09:27:20;28.60;;;13.50;;
21562;SDS011;10942;47.894;11.424;2022-12-19T09:29:45;26.75;;;14.10;;
21562;SDS011;10942;47.894;11.424;2022-12-19T09:32:11;33.40;;;16.52;;
21562;SDS011;10942;47.894;11.424;2022-12-19T09:34:37;29.23;;;15.70;;
21562;SDS011;10942;47.894;11.424;2022-12-19T09:37:03;44.17;;;21.45;;
21562;SDS011;10942;47.894;11.424;2022-12-19T09:39:30;52.80;;;22.15;;
21562;SDS011;10942;47.894;11.424;2022-12-19T09:47:12;43.50;;;19.60;;
21562;SDS011;10942;47.894;11.424;2022-12-19T09:49:42;46.78;;;20.92;;
21562;SDS011;10942;47.894;11.424;2022-12-19T10:00:35;29.00;;;13.88;;
21562;SDS011;10942;47.894;11.424;2022-12-19T10:03:13;31.30;;;15.68;;
21562;SDS011;10942;47.894;11.424;2022-12-19T10:08:37;32.92;;;15.48;;
21562;SDS011;10942;47.894;11.424;2022-12-19T10:22:49;54.85;;;23.52;;
21562;SDS011;10942;47.894;11.424;2022-12-19T10:25:12;40.33;;;19.75;;
21562;SDS011;10942;47.894;11.424;2022-12-19T10:27:53;38.03;;;18.67;;
21562;SDS011;10942;47.894;11.424;2022-12-19T10:30:41;38.83;;;20.55;;
21562;SDS011;10942;47.894;11.424;2022-12-19T10:33:27;37.80;;;20.98;;
21562;SDS011;10942;47.894;11.424;2022-12-19T10:36:00;45.15;;;23.17;;
21562;SDS011;10942;47.894;11.424;2022-12-19T10:41:10;38.42;;;18.77;;
21562;SDS011;10942;47.894;11.424;2022-12-19T10:43:47;36.58;;;20.20;;
21562;SDS011;10942;47.894;11.424;2022-12-19T10:49:12;33.05;;;19.95;;
21562;SDS011;10942;47.894;11.424;2022-12-19T10:51:51;36.78;;;21.45;;
21562;SDS011;10942;47.894;11.424;2022-12-19T10:54:23;35.70;;;20.02;;
21562;SDS011;10942;47.894;11.424;2022-12-19T10:56:50;39.15;;;21.70;;
21562;SDS011;10942;47.894;11.424;2022-12-19T10:59:17;38.63;;;23.42;;
21562;SDS011;10942;47.894;11.424;2022-12-19T11:01:44;43.33;;;24.92;;
21562;SDS011;10942;47.894;11.424;2022-12-19T11:06:49;43.60;;;24.08;;
21562;SDS011;10942;47.894;11.424;2022-12-19T11:09:28;43.72;;;24.45;;
21562;SDS011;10942;47.894;11.424;2022-12-19T11:12:08;39.15;;;22.98;;
21562;SDS011;10942;47.894;11.424;2022-12-19T11:14:37;39.25;;;23.25;;
21562;SDS011;10942;47.894;11.424;2022-12-19T11:17:05;33.10;;;19.70;;
21562;SDS011;10942;47.894;11.424;2022-12-19T11:19:56;45.65;;;23.65;;
21562;SDS011;10942;47.894;11.424;2022-12-19T11:22:31;27.38;;;17.45;;
21562;SDS011;10942;47.894;11.424;2022-12-19T11:25:00;31.13;;;16.58;;
21562;SDS011;10942;47.894;11.424;2022-12-19T11:30:00;27.42;;;15.98;;
21562;SDS011;10942;47.894;11.424;2022-12-19T11:32:32;26.85;;;15.43;;
21562;SDS011;10942;47.894;11.424;2022-12-19T11:35:04;28.75;;;17.73;;
21562;SDS011;10942;47.894;11.424;2022-12-19T11:37:54;29.33;;;16.67;;
21562;SDS011;10942;47.894;11.424;2022-12-19T11:40:31;28.15;;;15.48;;
21562;SDS011;10942;47.894;11.424;2022-12-19T11:51:17;24.83;;;13.77;;
21562;SDS011;10942;47.894;11.424;2022-12-19T11:56:35;22.15;;;13.95;;
21562;SDS011;10942;47.894;11.424;2022-12-19T11:59:11;25.23;;;15.20;;
21562;SDS011;10942;47.894;11.424;2022-12-19T12:07:11;18.10;;;10.88;;
21562;SDS011;10942;47.894;11.424;2022-12-19T12:18:01;18.48;;;10.60;;
21562;SDS011;10942;47.894;11.424;2022-12-19T12:23:28;18.23;;;11.18;;
21562;SDS011;10942;47.894;11.424;2022-12-19T12:36:50;51.33;;;26.33;;
21562;SDS011;10942;47.894;11.424;2022-12-19T12:45:12;26.52;;;12.73;;
21562;SDS011;10942;47.894;11.424;2022-12-19T12:47:48;19.23;;;9.80;;
21562;SDS011;10942;47.894;11.424;2022-12-19T12:50:16;18.52;;;9.77;;
21562;SDS011;10942;47.894;11.424;2022-12-19T12:52:57;17.95;;;9.55;;
21562;SDS011;10942;47.894;11.424;2022-12-19T12:55:30;44.15;;;15.85;;
21562;SDS011;10942;47.894;11.424;2022-12-19T12:57:59;23.17;;;11.25;;
21562;SDS011;10942;47.894;11.424;2022-12-19T13:00:26;22.85;;;12.18;;
21562;SDS011;10942;47.894;11.424;2022-12-19T13:05:39;13.52;;;7.78;;
21562;SDS011;10942;47.894;11.424;2022-12-19T13:11:12;15.27;;;8.00;;
21562;SDS011;10942;47.894;11.424;2022-12-19T13:17:07;16.65;;;9.95;;
21562;SDS011;10942;47.894;11.424;2022-12-19T13:20:24;18.33;;;10.93;;
21562;SDS011;10942;47.894;11.424;2022-12-19T13:23:04;15.63;;;9.60;;
21562;SDS011;10942;47.894;11.424;2022-12-19T13:28:34;15.75;;;8.90;;
21562;SDS011;10942;47.894;11.424;2022-12-19T13:41:51;17.02;;;10.15;;
21562;SDS011;10942;47.894;11.424;2022-12-19T13:44:45;21.17;;;11.65;;
21562;SDS011;10942;47.894;11.424;2022-12-19T13:47:14;22.48;;;13.00;;
21562;SDS011;10942;47.894;11.424;2022-12-19T13:49:40;20.30;;;12.00;;
21562;SDS011;10942;47.894;11.424;2022-12-19T13:52:08;21.65;;;11.60;;
21562;SDS011;10942;47.894;11.424;2022-12-19T13:54:36;19.15;;;11.32;;
21562;SDS011;10942;47.894;11.424;2022-12-19T13:57:21;17.63;;;10.30;;
21562;SDS011;10942;47.894;11.424;2022-12-19T13:59:51;18.20;;;10.35;;
21562;SDS011;10942;47.894;11.424;2022-12-19T14:02:29;19.20;;;10.50;;
21562;SDS011;10942;47.894;11.424;2022-12-19T14:04:57;20.73;;;11.15;;
21562;SDS011;10942;47.894;11.424;2022-12-19T14:09:58;32.53;;;11.48;;
21562;SDS011;10942;47.894;11.424;2022-12-19T14:12:25;30.63;;;9.68;;
21562;SDS011;10942;47.894;11.424;2022-12-19T14:15:36;21.00;;;8.50;;
21562;SDS011;10942;47.894;11.424;2022-12-19T14:20:48;13.15;;;6.50;;
21562;SDS011;10942;47.894;11.424;2022-12-19T14:23:15;94.18;;;39.85;;
21562;SDS011;10942;47.894;11.424;2022-12-19T14:25:48;20.88;;;12.00;;
21562;SDS011;10942;47.894;11.424;2022-12-19T14:28:18;100.28;;;23.30;;
21562;SDS011;10942;47.894;11.424;2022-12-19T14:30:58;63.20;;;18.33;;
21562;SDS011;10942;47.894;11.424;2022-12-19T14:33:32;34.03;;;11.70;;
21562;SDS011;10942;47.894;11.424;2022-12-19T14:36:03;45.75;;;13.43;;
21562;SDS011;10942;47.894;11.424;2022-12-19T14:38:30;136.98;;;46.60;;
21562;SDS011;10942;47.894;11.424;2022-12-19T14:40:58;78.55;;;25.88;;
21562;SDS011;10942;47.894;11.424;2022-12-19T14:43:27;100.47;;;21.85;;
21562;SDS011;10942;47.894;11.424;2022-12-19T14:46:22;108.90;;;20.30;;
21562;SDS011;10942;47.894;11.424;2022-12-19T14:51:36;58.55;;;16.15;;
21562;SDS011;10942;47.894;11.424;2022-12-19T14:56:42;42.15;;;13.38;;
21562;SDS011;10942;47.894;11.424;2022-12-19T15:04:36;91.47;;;36.85;;
21562;SDS011;10942;47.894;11.424;2022-12-19T15:09:45;23.92;;;9.98;;
21562;SDS011;10942;47.894;11.424;2022-12-19T15:12:14;24.40;;;9.07;;
21562;SDS011;10942;47.894;11.424;2022-12-19T15:17:43;19.48;;;9.63;;
21562;SDS011;10942;47.894;11.424;2022-12-19T15:20:10;23.40;;;11.02;;
21562;SDS011;10942;47.894;11.424;2022-12-19T15:22:36;22.80;;;10.80;;
21562;SDS011;10942;47.894;11.424;2022-12-19T15:25:01;18.42;;;9.93;;
21562;SDS011;10942;47.894;11.424;2022-12-19T15:27:27;20.40;;;11.55;;
21562;SDS011;10942;47.894;11.424;2022-12-19T15:29:53;26.67;;;12.45;;
21562;SDS011;10942;47.894;11.424;2022-12-19T15:32:19;18.27;;;10.57;;
21562;SDS011;10942;47.894;11.424;2022-12-19T15:34:44;28.00;;;12.05;;
21562;SDS011;10942;47.894;11.424;2022-12-19T15:37:13;21.05;;;10.55;;
21562;SDS011;10942;47.894;11.424;2022-12-19T15:39:40;16.70;;;8.27;;
21562;SDS011;10942;47.894;11.424;2022-12-19T15:42:20;17.17;;;8.55;;
21562;SDS011;10942;47.894;11.424;2022-12-19T15:44:48;19.10;;;9.90;;
21562;SDS011;10942;47.894;11.424;2022-12-19T15:47:28;13.75;;;8.25;;
21562;SDS011;10942;47.894;11.424;2022-12-19T15:49:56;12.77;;;7.22;;
21562;SDS011;10942;47.894;11.424;2022-12-19T15:52:26;10.90;;;6.13;;
21562;SDS011;10942;47.894;11.424;2022-12-19T15:54:52;15.73;;;8.00;;
21562;SDS011;10942;47.894;11.424;2022-12-19T15:59:59;49.63;;;12.85;;
21562;SDS011;10942;47.894;11.424;2022-12-19T16:02:30;40.20;;;13.55;;
21562;SDS011;10942;47.894;11.424;2022-12-19T16:04:57;37.92;;;15.27;;
21562;SDS011;10942;47.894;11.424;2022-12-19T16:07:23;52.95;;;18.45;;
21562;SDS011;10942;47.894;11.424;2022-12-19T16:09:52;19.67;;;10.80;;
21562;SDS011;10942;47.894;11.424;2022-12-19T16:12:20;9.73;;;6.72;;
21562;SDS011;10942;47.894;11.424;2022-12-19T16:17:28;15.30;;;8.55;;
21562;SDS011;10942;47.894;11.424;2022-12-19T16:19:56;19.40;;;10.05;;
21562;SDS011;10942;47.894;11.424;2022-12-19T16:22:24;19.80;;;9.55;;
21562;SDS011;10942;47.894;11.424;2022-12-19T16:24:52;15.52;;;8.73;;
21562;SDS011;10942;47.894;11.424;2022-12-19T16:27:28;16.73;;;9.20;;
21562;SDS011;10942;47.894;11.424;2022-12-19T16:29:55;16.42;;;8.27;;
21562;SDS011;10942;47.894;11.424;2022-12-19T16:32:26;22.52;;;9.77;;
21562;SDS011;10942;47.894;11.424;2022-12-19T16:34:52;17.58;;;9.85;;
21562;SDS011;10942;47.894;11.424;2022-12-19T16:37:18;18.52;;;10.65;;
21562;SDS011;10942;47.894;11.424;2022-12-19T16:39:44;18.90;;;11.45;;
21562;SDS011;10942;47.894;11.424;2022-12-19T16:42:13;15.50;;;10.00;;
21562;SDS011;10942;47.894;11.424;2022-12-19T16:44:40;14.30;;;10.38;;
21562;SDS011;10942;47.894;11.424;2022-12-19T16:47:14;12.45;;;9.18;;
21562;SDS011;10942;47.894;11.424;2022-12-19T16:49:42;12.98;;;8.88;;
21562;SDS011;10942;47.894;11.424;2022-12-19T16:52:08;14.85;;;9.05;;
21562;SDS011;10942;47.894;11.424;2022-12-19T16:54:34;15.40;;;10.10;;
21562;SDS011;10942;47.894;11.424;2022-12-19T16:57:00;14.52;;;9.52;;
21562;SDS011;10942;47.894;11.424;2022-12-19T16:59:39;16.13;;;9.48;;
21562;SDS011;10942;47.894;11.424;2022-12-19T17:02:30;18.20;;;9.88;;
21562;SDS011;10942;47.894;11.424;2022-12-19T17:05:26;14.75;;;9.32;;
21562;SDS011;10942;47.894;11.424;2022-12-19T17:10:20;16.17;;;9.90;;
21562;SDS011;10942;47.894;11.424;2022-12-19T17:12:48;18.67;;;10.88;;